createdAt,value
2022-08-07T00:01:44.288Z,21.36
2022-08-07T00:04:09.518Z,21.31
2022-08-07T00:06:40.930Z,21.26
2022-08-07T00:09:29.217Z,21.23
2022-08-07T00:12:03.861Z,21.18
2022-08-07T00:14:32.402Z,21.14
2022-08-07T00:17:01.862Z,21.08
2022-08-07T00:20:00.360Z,21.02
2022-08-07T00:22:24.527Z,20.96
2022-08-07T00:25:07.030Z,20.92
2022-08-07T00:27:53.274Z,20.89
2022-08-07T00:30:26.986Z,20.86
2022-08-07T00:33:02.061Z,20.84
2022-08-07T00:35:30.635Z,20.82
2022-08-07T00:37:59.220Z,20.80
2022-08-07T00:40:39.358Z,20.77
2022-08-07T00:43:59.373Z,20.75
2022-08-07T00:46:01.889Z,20.73
2022-08-07T00:48:32.249Z,20.71
2022-08-07T00:51:02.260Z,20.67
2022-08-07T00:53:38.836Z,20.64
2022-08-07T00:56:18.295Z,20.60
2022-08-07T00:58:47.417Z,20.53
2022-08-07T01:01:19.923Z,20.49
2022-08-07T01:03:56.150Z,20.47
2022-08-07T01:06:28.837Z,20.46
2022-08-07T01:08:58.569Z,20.45
2022-08-07T01:12:27.438Z,20.44
2022-08-07T01:14:28.879Z,20.43
2022-08-07T01:16:58.757Z,20.43
2022-08-07T01:19:32.414Z,20.41
2022-08-07T01:22:01.072Z,20.39
2022-08-07T01:24:38.332Z,20.40
2022-08-07T01:27:06.910Z,20.41
2022-08-07T01:29:48.501Z,20.42
2022-08-07T01:32:19.851Z,20.41
2022-08-07T01:34:51.580Z,20.41
2022-08-07T01:37:19.268Z,20.40
2022-08-07T01:39:49.837Z,20.37
2022-08-07T01:42:38.433Z,20.34
2022-08-07T01:45:22.704Z,20.30
2022-08-07T01:48:21.583Z,20.26
2022-08-07T01:50:42.968Z,20.23
2022-08-07T01:53:21.125Z,20.22
2022-08-07T01:56:06.173Z,20.21
2022-08-07T01:59:09.385Z,20.19
2022-08-07T02:02:01.893Z,20.16
2022-08-07T02:04:52.567Z,20.14
2022-08-07T02:07:50.134Z,20.07
2022-08-07T02:10:25.263Z,19.99
2022-08-07T02:12:57.371Z,19.97
2022-08-07T02:15:33.975Z,19.94
2022-08-07T02:18:02.866Z,19.91
2022-08-07T02:20:32.843Z,19.90
2022-08-07T02:23:05.356Z,19.88
2022-08-07T02:26:30.414Z,19.85
2022-08-07T02:28:27.024Z,19.82
2022-08-07T02:30:58.782Z,19.80
2022-08-07T02:33:41.956Z,19.79
2022-08-07T02:36:29.162Z,19.78
2022-08-07T02:39:09.441Z,19.79
2022-08-07T02:41:50.570Z,19.79
2022-08-07T02:44:24.115Z,19.78
2022-08-07T02:46:57.094Z,19.77
2022-08-07T02:49:28.603Z,19.75
2022-08-07T02:51:59.275Z,19.73
2022-08-07T02:54:29.034Z,19.69
2022-08-07T02:57:01.355Z,19.65
2022-08-07T02:59:31.898Z,19.60
2022-08-07T03:02:02.581Z,19.58
2022-08-07T03:04:30.859Z,19.54
2022-08-07T03:07:07.153Z,19.49
2022-08-07T03:09:43.559Z,19.42
2022-08-07T03:12:22.707Z,19.41
2022-08-07T03:15:02.381Z,19.43
2022-08-07T03:17:53.335Z,19.43
2022-08-07T03:20:24.025Z,19.46
2022-08-07T03:22:53.674Z,19.47
2022-08-07T03:25:23.411Z,19.48
2022-08-07T03:27:59.098Z,19.50
2022-08-07T03:30:37.430Z,19.55
2022-08-07T03:33:08.645Z,19.60
2022-08-07T03:35:44.151Z,19.63
2022-08-07T03:38:21.243Z,19.66
2022-08-07T03:40:53.951Z,19.66
2022-08-07T03:43:26.801Z,19.69
2022-08-07T03:46:02.981Z,19.70
2022-08-07T03:48:33.570Z,19.69
2022-08-07T03:51:13.984Z,19.70
2022-08-07T03:54:05.713Z,19.71
2022-08-07T03:56:33.307Z,19.76
2022-08-07T03:59:09.813Z,19.78
2022-08-07T04:01:45.546Z,19.81
2022-08-07T04:04:17.615Z,19.84
2022-08-07T04:06:46.563Z,19.91
2022-08-07T04:09:23.432Z,19.97
2022-08-07T04:12:23.412Z,20.02
2022-08-07T04:14:47.822Z,20.08
2022-08-07T04:17:20.761Z,20.12
2022-08-07T04:19:55.233Z,20.19
2022-08-07T04:22:30.013Z,20.30
2022-08-07T04:25:01.813Z,20.38
2022-08-07T04:27:35.460Z,20.48
2022-08-07T04:30:35.641Z,20.57
2022-08-07T04:33:07.445Z,20.68
2022-08-07T04:35:37.537Z,20.82
2022-08-07T04:38:09.231Z,20.94
2022-08-07T04:40:52.732Z,21.08
2022-08-07T04:44:11.964Z,21.23
2022-08-07T04:46:59.581Z,21.39
2022-08-07T04:50:04.146Z,21.51
2022-08-07T04:52:53.578Z,21.65
2022-08-07T04:58:12.052Z,21.78
2022-08-07T04:58:38.757Z,21.88
2022-08-07T05:02:08.690Z,21.96
2022-08-07T05:05:11.894Z,22.10
2022-08-07T05:08:08.423Z,22.22
2022-08-07T05:10:51.174Z,22.35
2022-08-07T05:14:55.213Z,22.49
2022-08-07T05:16:25.772Z,22.61
2022-08-07T05:18:56.583Z,22.72
2022-08-07T05:22:00.247Z,22.85
2022-08-07T05:24:17.508Z,22.95
2022-08-07T05:26:47.237Z,23.05
2022-08-07T05:29:17.230Z,23.13
2022-08-07T05:31:51.207Z,23.20
2022-08-07T05:34:26.302Z,23.27
2022-08-07T05:36:55.554Z,23.33
2022-08-07T05:40:05.457Z,23.39
2022-08-07T05:42:34.269Z,23.43
2022-08-07T05:45:26.327Z,23.43
2022-08-07T05:48:16.579Z,23.46
2022-08-07T05:50:46.041Z,23.50
2022-08-07T05:54:14.151Z,23.58
2022-08-07T05:56:06.234Z,23.62
2022-08-07T05:58:52.316Z,23.69
2022-08-07T06:01:27.458Z,23.76
2022-08-07T06:04:10.468Z,23.79
2022-08-07T06:06:46.416Z,23.83
2022-08-07T06:09:16.767Z,23.90
2022-08-07T06:11:46.534Z,23.96
2022-08-07T06:14:20.999Z,24.03
2022-08-07T06:16:55.818Z,24.08
2022-08-07T06:19:52.005Z,24.15
2022-08-07T06:22:50.555Z,24.19
2022-08-07T06:25:34.843Z,24.23
2022-08-07T06:28:14.212Z,24.18
2022-08-07T06:30:45.868Z,24.15
2022-08-07T06:33:17.889Z,24.14
2022-08-07T06:36:06.101Z,24.20
2022-08-07T06:38:35.162Z,24.26
2022-08-07T06:41:13.022Z,24.32
2022-08-07T06:43:46.447Z,24.33
2022-08-07T06:46:35.124Z,24.39
2022-08-07T06:49:05.162Z,24.44
2022-08-07T06:51:49.605Z,24.50
2022-08-07T06:55:32.586Z,24.46
2022-08-07T06:57:09.239Z,24.42
2022-08-07T07:00:13.789Z,24.50
2022-08-07T07:02:53.496Z,24.59
2022-08-07T07:06:03.615Z,24.64
2022-08-07T07:08:12.453Z,24.73
2022-08-07T07:10:54.951Z,24.78
2022-08-07T07:13:55.872Z,24.76
2022-08-07T07:16:30.277Z,24.81
2022-08-07T07:19:23.606Z,24.89
2022-08-07T07:22:04.825Z,24.98
2022-08-07T07:24:43.004Z,25.04
2022-08-07T07:27:35.571Z,25.09
2022-08-07T07:30:32.483Z,25.12
2022-08-07T07:33:01.373Z,25.16
2022-08-07T07:35:33.477Z,25.27
2022-08-07T07:38:05.758Z,25.38
2022-08-07T07:40:34.138Z,25.44
2022-08-07T07:43:15.306Z,25.52
2022-08-07T07:46:36.868Z,25.61
2022-08-07T07:48:36.481Z,25.65
2022-08-07T07:51:07.708Z,25.66
2022-08-07T07:53:52.109Z,25.68
2022-08-07T07:56:30.531Z,25.73
2022-08-07T07:59:04.377Z,25.80
2022-08-07T08:02:02.944Z,25.87
2022-08-07T08:04:25.718Z,25.93
2022-08-07T08:06:54.929Z,26.08
2022-08-07T08:09:25.948Z,26.19
2022-08-07T08:12:02.622Z,26.28
2022-08-07T08:14:34.247Z,26.33
2022-08-07T08:17:56.094Z,26.40
2022-08-07T08:20:17.446Z,26.48
2022-08-07T08:23:09.280Z,26.57
2022-08-07T08:25:58.481Z,26.61
2022-08-07T08:28:37.398Z,26.74
2022-08-07T08:32:16.729Z,26.84
2022-08-07T08:34:32.870Z,26.97
2022-08-07T08:37:02.967Z,27.02
2022-08-07T08:39:39.832Z,27.04
2022-08-07T08:42:52.863Z,27.08
2022-08-07T08:45:59.219Z,27.13
2022-08-07T08:48:42.472Z,27.21
2022-08-07T08:52:00.892Z,27.28
2022-08-07T08:54:50.812Z,27.40
2022-08-07T08:57:38.052Z,27.49
2022-08-07T09:00:12.264Z,27.55
2022-08-07T09:02:40.310Z,27.56
2022-08-07T09:05:37.810Z,27.59
2022-08-07T09:08:28.454Z,27.64
2022-08-07T09:11:24.296Z,27.73
2022-08-07T09:14:20.329Z,27.89
2022-08-07T09:16:57.631Z,27.90
2022-08-07T09:20:35.968Z,27.89
2022-08-07T09:24:54.123Z,27.94
2022-08-07T09:26:27.776Z,28.02
2022-08-07T09:30:06.615Z,28.03
2022-08-07T09:33:05.710Z,28.06
2022-08-07T09:36:35.067Z,28.08
2022-08-07T09:39:54.218Z,28.14
2022-08-07T09:42:11.902Z,28.16
2022-08-07T09:47:24.017Z,28.17
2022-08-07T09:48:29.709Z,28.19
2022-08-07T09:51:25.926Z,28.28
2022-08-07T09:54:02.631Z,28.29
2022-08-07T09:56:51.724Z,28.24
2022-08-07T09:59:44.355Z,28.18
2022-08-07T10:02:55.387Z,28.11
2022-08-07T10:06:12.264Z,28.07
2022-08-07T10:09:15.171Z,28.12
2022-08-07T10:12:53.115Z,28.05
2022-08-07T10:16:09.755Z,27.98
2022-08-07T10:19:24.674Z,27.96
2022-08-07T10:22:24.868Z,27.94
2022-08-07T10:25:22.661Z,27.93
2022-08-07T10:28:17.386Z,27.81
2022-08-07T10:31:31.464Z,27.65
2022-08-07T10:34:37.712Z,27.58
2022-08-07T10:38:21.211Z,27.47
2022-08-07T10:41:04.182Z,27.37
2022-08-07T10:43:43.031Z,27.13
2022-08-07T10:46:20.011Z,27.03
2022-08-07T10:49:49.095Z,26.85
2022-08-07T10:52:55.303Z,26.64
2022-08-07T10:55:37.971Z,26.52
2022-08-07T10:58:48.181Z,26.52
2022-08-07T11:02:12.447Z,26.63
2022-08-07T11:05:50.780Z,26.54
2022-08-07T11:08:32.431Z,26.58
2022-08-07T11:11:25.464Z,26.56
2022-08-07T11:14:44.915Z,26.50
2022-08-07T11:17:42.597Z,26.42
2022-08-07T11:20:19.910Z,26.46
2022-08-07T11:23:36.598Z,26.50
2022-08-07T11:26:48.096Z,26.49
2022-08-07T11:30:10.051Z,26.50
2022-08-07T11:33:01.269Z,26.54
2022-08-07T11:36:10.444Z,26.50
2022-08-07T11:38:59.814Z,26.26
2022-08-07T11:42:00.433Z,26.23
2022-08-07T11:45:35.561Z,26.17
2022-08-07T11:48:29.129Z,26.15
2022-08-07T11:51:41.340Z,26.10
2022-08-07T11:54:46.485Z,26.09
2022-08-07T11:57:57.877Z,26.10
2022-08-07T12:01:02.238Z,26.19
2022-08-07T12:03:49.641Z,26.28
2022-08-07T12:06:39.027Z,26.23
2022-08-07T12:09:09.639Z,26.34
2022-08-07T12:12:09.179Z,26.43
2022-08-07T12:15:01.200Z,26.53
2022-08-07T12:17:39.228Z,26.56
2022-08-07T12:20:36.525Z,26.59
2022-08-07T12:23:21.396Z,26.52
2022-08-07T12:26:41.986Z,26.54
2022-08-07T12:30:04.626Z,26.46
2022-08-07T12:32:58.586Z,26.56
2022-08-07T12:35:26.979Z,26.65
2022-08-07T12:38:11.339Z,26.69
2022-08-07T12:40:50.397Z,26.73
2022-08-07T12:44:01.381Z,26.73
2022-08-07T12:46:41.284Z,26.76
2022-08-07T12:49:51.567Z,26.61
2022-08-07T12:52:41.728Z,26.34
2022-08-07T12:56:02.762Z,26.32
2022-08-07T12:58:37.053Z,26.24
2022-08-07T13:01:32.057Z,26.14
2022-08-07T13:04:31.707Z,26.17
2022-08-07T13:08:13.945Z,26.21
2022-08-07T13:11:01.825Z,26.23
2022-08-07T13:13:55.152Z,26.29
2022-08-07T13:16:41.271Z,26.32
2022-08-07T13:19:50.886Z,26.35
2022-08-07T13:22:53.367Z,26.37
2022-08-07T13:25:30.641Z,26.45
2022-08-07T13:28:14.294Z,26.67
2022-08-07T13:31:13.333Z,26.84
2022-08-07T13:34:33.414Z,26.87
2022-08-07T13:36:44.880Z,26.89
2022-08-07T13:40:36.276Z,26.95
2022-08-07T13:42:53.190Z,26.97
2022-08-07T13:46:11.142Z,27.08
2022-08-07T13:48:27.454Z,27.13
2022-08-07T13:51:00.221Z,27.21
2022-08-07T13:53:59.576Z,27.30
2022-08-07T13:56:36.274Z,27.33
2022-08-07T13:59:21.943Z,27.21
2022-08-07T14:02:08.072Z,27.19
2022-08-07T14:04:54.437Z,27.19
2022-08-07T14:08:01.360Z,27.18
2022-08-07T14:10:44.827Z,27.20
2022-08-07T14:13:33.189Z,27.13
2022-08-07T14:16:06.379Z,27.07
2022-08-07T14:18:56.748Z,27.00
2022-08-07T14:22:03.093Z,26.91
2022-08-07T14:24:35.459Z,26.84
2022-08-07T14:27:16.169Z,26.85
2022-08-07T14:30:08.091Z,26.83
2022-08-07T14:32:50.501Z,26.78
2022-08-07T14:35:45.349Z,26.79
2022-08-07T14:38:26.839Z,26.74
2022-08-07T14:43:55.512Z,26.78
2022-08-07T14:46:32.004Z,26.75
2022-08-07T14:49:56.086Z,26.64
2022-08-07T14:52:05.032Z,26.64
2022-08-07T14:54:42.154Z,26.54
2022-08-07T14:57:19.665Z,26.56
2022-08-07T15:00:03.172Z,26.56
2022-08-07T15:02:39.405Z,26.52
2022-08-07T15:05:20.084Z,26.42
2022-08-07T15:08:05.063Z,26.41
2022-08-07T15:10:36.645Z,26.40
2022-08-07T15:13:18.313Z,26.35
2022-08-07T15:15:52.198Z,26.36
2022-08-07T15:18:46.362Z,26.33
2022-08-07T15:25:13.285Z,26.19
2022-08-07T15:27:16.831Z,26.16
2022-08-07T15:30:08.844Z,26.13
2022-08-07T15:32:50.672Z,26.08
2022-08-07T15:36:00.841Z,26.02
2022-08-07T15:41:24.422Z,25.76
2022-08-07T15:44:14.714Z,25.68
2022-08-07T15:50:04.282Z,25.39
2022-08-07T15:52:30.782Z,25.25
2022-08-07T15:55:03.865Z,25.15
2022-08-07T15:57:39.946Z,25.12
2022-08-07T16:00:31.078Z,25.09
2022-08-07T16:03:46.111Z,25.04
2022-08-07T16:06:16.650Z,24.94
2022-08-07T16:08:46.433Z,24.86
2022-08-07T16:11:42.933Z,24.76
2022-08-07T16:14:53.686Z,24.65
2022-08-07T16:18:01.926Z,24.62
2022-08-07T16:22:01.593Z,24.55
2022-08-07T16:24:34.420Z,24.43
2022-08-07T16:27:18.642Z,24.38
2022-08-07T16:30:11.085Z,24.31
2022-08-07T16:34:02.073Z,24.17
2022-08-07T16:36:19.898Z,24.02
2022-08-07T16:39:49.379Z,23.94
2022-08-07T16:42:47.873Z,23.84
2022-08-07T16:46:21.331Z,23.75
2022-08-07T16:50:27.053Z,23.65
2022-08-07T16:52:50.771Z,23.56
2022-08-07T16:55:50.324Z,23.53
2022-08-07T16:59:10.804Z,23.41
2022-08-07T17:02:08.999Z,23.31
2022-08-07T17:06:19.514Z,23.19
2022-08-07T17:09:09.807Z,23.08
2022-08-07T17:12:05.170Z,22.75
2022-08-07T17:14:48.724Z,22.60
2022-08-07T17:17:46.411Z,22.54
2022-08-07T17:20:21.438Z,22.51
2022-08-07T17:23:40.179Z,22.40
2022-08-07T17:26:23.419Z,22.25
2022-08-07T17:29:09.102Z,22.13
2022-08-07T17:32:03.211Z,21.99
2022-08-07T17:35:40.706Z,21.85
2022-08-07T17:38:09.428Z,21.81
2022-08-07T17:40:43.997Z,21.71
2022-08-07T17:44:00.956Z,21.62
2022-08-07T17:46:43.150Z,21.51
2022-08-07T17:49:44.514Z,21.34
2022-08-07T17:52:35.298Z,21.22
2022-08-07T17:55:16.634Z,21.08
2022-08-07T17:58:08.426Z,21.00
2022-08-07T18:00:48.782Z,20.93
2022-08-07T18:04:04.460Z,20.86
2022-08-07T18:06:36.918Z,20.69
2022-08-07T18:09:08.540Z,20.60
2022-08-07T18:12:16.539Z,20.55
2022-08-07T18:15:00.341Z,20.54
2022-08-07T18:18:46.178Z,20.50
2022-08-07T18:21:02.972Z,20.44
2022-08-07T18:23:58.500Z,20.40
2022-08-07T18:26:56.513Z,20.34
2022-08-07T18:30:04.302Z,20.25
2022-08-07T18:33:30.432Z,20.25
2022-08-07T18:36:53.681Z,20.17
2022-08-07T18:40:06.407Z,20.12
2022-08-07T18:42:54.407Z,20.05
2022-08-07T18:46:25.016Z,20.04
2022-08-07T18:50:31.321Z,20.02
2022-08-07T18:52:34.592Z,20.01
2022-08-07T18:54:49.718Z,19.97
2022-08-07T18:57:43.801Z,19.96
2022-08-07T19:01:02.029Z,19.92
2022-08-07T19:03:52.363Z,19.87
2022-08-07T19:06:48.897Z,19.84
2022-08-07T19:09:59.027Z,19.81
2022-08-07T19:12:53.642Z,19.80
2022-08-07T19:16:05.131Z,19.76
2022-08-07T19:19:13.174Z,19.73
2022-08-07T19:22:31.150Z,19.69
2022-08-07T19:25:06.923Z,19.71
2022-08-07T19:28:30.249Z,19.64
2022-08-07T19:31:03.461Z,19.65
2022-08-07T19:33:34.859Z,19.67
2022-08-07T19:36:04.511Z,19.65
2022-08-07T19:38:35.201Z,19.67
2022-08-07T19:41:44.305Z,19.68
2022-08-07T19:44:21.578Z,19.63
2022-08-07T19:46:55.868Z,19.67
2022-08-07T19:49:57.073Z,19.71
2022-08-07T19:52:18.762Z,19.74
2022-08-07T19:54:56.323Z,19.75
2022-08-07T19:58:02.556Z,19.72
2022-08-07T20:00:34.494Z,19.74
2022-08-07T20:03:34.603Z,19.76
2022-08-07T20:06:02.683Z,19.74
2022-08-07T20:08:34.103Z,19.72
2022-08-07T20:11:10.054Z,19.68
2022-08-07T20:13:50.647Z,19.70
2022-08-07T20:16:35.568Z,19.60
2022-08-07T20:19:10.378Z,19.59
2022-08-07T20:21:47.411Z,19.57
2022-08-07T20:24:24.045Z,19.59
2022-08-07T20:27:04.344Z,19.52
2022-08-07T20:29:49.433Z,19.46
2022-08-07T20:32:39.994Z,19.34
2022-08-07T20:35:26.264Z,19.31
2022-08-07T20:37:59.708Z,19.28
2022-08-07T20:40:40.587Z,19.20
2022-08-07T20:43:19.217Z,19.18
2022-08-07T20:46:26.008Z,19.19
2022-08-07T20:48:57.951Z,19.14
2022-08-07T20:51:30.496Z,19.13
2022-08-07T20:54:11.754Z,19.16
2022-08-07T20:56:41.886Z,19.14
2022-08-07T21:00:04.219Z,19.12
2022-08-07T21:02:32.826Z,19.07
2022-08-07T21:05:04.464Z,19.12
2022-08-07T21:07:39.067Z,19.13
2022-08-07T21:10:11.615Z,19.12
2022-08-07T21:12:39.134Z,19.08
2022-08-07T21:15:10.211Z,19.10
2022-08-07T21:18:04.020Z,19.12
2022-08-07T21:20:39.236Z,19.07
2022-08-07T21:23:29.252Z,19.01
2022-08-07T21:26:08.788Z,19.02
2022-08-07T21:28:58.265Z,18.99
2022-08-07T21:31:49.933Z,19.02
2022-08-07T21:34:46.328Z,18.99
2022-08-07T21:37:58.465Z,18.97
2022-08-07T21:40:47.478Z,18.97
2022-08-07T21:44:03.644Z,18.96
2022-08-07T21:46:37.228Z,18.98
2022-08-07T21:49:26.827Z,18.99
2022-08-07T21:52:17.680Z,18.96
2022-08-07T21:55:29.916Z,18.95
2022-08-07T21:58:29.934Z,18.93
2022-08-07T22:01:13.988Z,18.98
2022-08-07T22:03:47.626Z,19.01
2022-08-07T22:06:30.424Z,19.01
2022-08-07T22:09:12.019Z,19.03
2022-08-07T22:12:05.050Z,19.03
2022-08-07T22:15:00.079Z,19.05
2022-08-07T22:17:59.151Z,19.05
2022-08-07T22:20:44.543Z,18.97
2022-08-07T22:23:46.467Z,18.97
2022-08-07T22:26:30.769Z,19.00
2022-08-07T22:29:50.177Z,18.99
2022-08-07T22:32:43.955Z,18.95
2022-08-07T22:35:11.707Z,18.94
2022-08-07T22:38:25.862Z,18.97
2022-08-07T22:42:18.786Z,18.94
2022-08-07T22:44:21.428Z,18.96
2022-08-07T22:47:04.188Z,18.95
2022-08-07T22:50:03.876Z,18.96
2022-08-07T22:53:17.344Z,18.96
2022-08-07T22:56:00.689Z,18.92
2022-08-07T22:59:16.766Z,18.90
2022-08-07T23:02:17.677Z,18.92
2022-08-07T23:06:07.730Z,18.93
2022-08-07T23:08:30.324Z,18.93
2022-08-07T23:11:22.282Z,18.91
2022-08-07T23:14:15.958Z,18.90
2022-08-07T23:17:08.616Z,18.85
2022-08-07T23:20:40.803Z,18.82
2022-08-07T23:24:06.858Z,18.81
2022-08-07T23:27:12.968Z,18.83
2022-08-07T23:30:37.207Z,18.81
2022-08-07T23:34:34.331Z,18.84
2022-08-07T23:37:23.465Z,18.85
2022-08-07T23:40:39.670Z,18.85
2022-08-07T23:43:37.861Z,18.89
2022-08-07T23:46:43.855Z,18.88
2022-08-07T23:49:58.135Z,18.91
2022-08-07T23:53:01.266Z,18.87
2022-08-07T23:56:11.974Z,18.87
